createdAt,value
2023-03-18T00:01:28.749Z,99791.91
2023-03-18T00:03:56.150Z,99790.66
2023-03-18T00:06:23.116Z,99791.09
2023-03-18T00:08:50.824Z,99790.28
2023-03-18T00:11:21.337Z,99798.09
2023-03-18T00:13:49.504Z,99796.16
2023-03-18T00:16:17.089Z,99802.16
2023-03-18T00:18:44.588Z,99802.13
2023-03-18T00:21:12.243Z,99804.13
2023-03-18T00:23:39.823Z,99802.75
2023-03-18T00:26:08.992Z,99807.38
2023-03-18T00:28:37.429Z,99803.47
2023-03-18T00:31:10.293Z,99804.81
2023-03-18T00:33:40.051Z,99810.78
2023-03-18T00:36:10.257Z,99818.28
2023-03-18T00:38:37.484Z,99808.50
2023-03-18T00:41:11.271Z,99813.72
2023-03-18T00:43:52.223Z,99810.81
2023-03-18T00:46:25.951Z,99812.91
2023-03-18T00:49:00.323Z,99816.34
2023-03-18T00:51:30.073Z,99814.69
2023-03-18T00:54:01.887Z,99819.25
2023-03-18T00:56:32.109Z,99816.03
2023-03-18T00:59:00.203Z,99818.91
2023-03-18T01:01:28.198Z,99825.50
2023-03-18T01:03:55.333Z,99830.16
2023-03-18T01:06:29.043Z,99847.03
2023-03-18T01:08:58.617Z,99854.53
2023-03-18T01:11:26.300Z,99842.75
2023-03-18T01:13:53.798Z,99842.59
2023-03-18T01:16:22.177Z,99844.69
2023-03-18T01:18:49.449Z,99837.25
2023-03-18T01:21:17.350Z,99835.69
2023-03-18T01:23:44.547Z,99815.75
2023-03-18T01:26:11.511Z,99812.03
2023-03-18T01:28:38.653Z,99809.72
2023-03-18T01:31:05.936Z,99811.22
2023-03-18T01:33:33.459Z,99813.16
2023-03-18T01:36:03.799Z,99803.53
2023-03-18T01:38:31.418Z,99815.84
2023-03-18T01:41:00.658Z,99817.25
2023-03-18T01:43:34.950Z,99831.50
2023-03-18T01:46:31.451Z,99835.19
2023-03-18T01:48:59.191Z,99808.78
2023-03-18T01:51:27.426Z,99810.63
2023-03-18T01:53:57.715Z,99806.38
2023-03-18T01:56:25.058Z,99801.38
2023-03-18T01:58:57.468Z,99800.47
2023-03-18T02:01:46.651Z,99798.19
2023-03-18T02:06:40.718Z,99811.94
2023-03-18T02:09:08.905Z,99800.06
2023-03-18T02:11:43.446Z,99798.88
2023-03-18T02:14:14.178Z,99803.03
2023-03-18T02:16:51.252Z,99804.88
2023-03-18T02:20:00.493Z,99811.22
2023-03-18T02:22:38.425Z,99806.59
2023-03-18T02:25:34.545Z,99810.69
2023-03-18T02:28:09.885Z,99814.75
2023-03-18T02:30:45.153Z,99808.63
2023-03-18T02:33:16.838Z,99807.97
2023-03-18T02:35:47.625Z,99806.03
2023-03-18T02:38:14.529Z,99809.84
2023-03-18T02:40:42.591Z,99799.81
2023-03-18T02:43:23.618Z,99799.53
2023-03-18T02:45:56.388Z,99798.28
2023-03-18T02:48:33.109Z,99792.25
2023-03-18T02:51:00.185Z,99787.28
2023-03-18T02:53:27.162Z,99789.69
2023-03-18T02:55:55.571Z,99791.53
2023-03-18T02:58:22.521Z,99795.19
2023-03-18T03:00:49.458Z,99803.94
2023-03-18T03:03:16.677Z,99798.94
2023-03-18T03:05:43.708Z,99797.72
2023-03-18T03:08:11.134Z,99801.66
2023-03-18T03:10:38.137Z,99795.09
2023-03-18T03:13:06.296Z,99807.66
2023-03-18T03:15:33.599Z,99804.78
2023-03-18T03:18:00.643Z,99805.88
2023-03-18T03:20:28.476Z,99810.47
2023-03-18T03:22:55.630Z,99803.63
2023-03-18T03:25:22.760Z,99801.34
2023-03-18T03:27:49.972Z,99800.69
2023-03-18T03:30:17.266Z,99799.53
2023-03-18T03:32:46.425Z,99807.22
2023-03-18T03:35:19.425Z,99808.19
2023-03-18T03:37:47.111Z,99800.06
2023-03-18T03:40:17.366Z,99801.97
2023-03-18T03:42:45.208Z,99804.16
2023-03-18T03:45:14.498Z,99807.28
2023-03-18T03:47:42.884Z,99806.63
2023-03-18T03:50:11.673Z,99815.91
2023-03-18T03:52:39.466Z,99816.72
2023-03-18T03:55:09.184Z,99819.97
2023-03-18T03:57:36.990Z,99817.25
2023-03-18T04:00:11.142Z,99830.75
2023-03-18T04:02:38.070Z,99828.69
2023-03-18T04:05:05.796Z,99820.97
2023-03-18T04:07:32.767Z,99813.75
2023-03-18T04:09:59.693Z,99815.34
2023-03-18T04:12:26.598Z,99814.72
2023-03-18T04:14:53.645Z,99813.41
2023-03-18T04:17:20.762Z,99821.59
2023-03-18T04:19:47.725Z,99819.25
2023-03-18T04:22:15.373Z,99819.28
2023-03-18T04:24:42.722Z,99829.38
2023-03-18T04:27:09.828Z,99822.53
2023-03-18T04:29:36.806Z,99830.28
2023-03-18T04:32:04.639Z,99826.69
2023-03-18T04:34:31.991Z,99835.63
2023-03-18T04:36:58.860Z,99837.91
2023-03-18T04:39:25.857Z,99830.59
2023-03-18T04:41:53.326Z,99837.38
2023-03-18T04:44:21.001Z,99839.31
2023-03-18T04:46:47.884Z,99846.19
2023-03-18T04:49:14.914Z,99834.53
2023-03-18T04:51:42.329Z,99831.91
2023-03-18T04:54:09.248Z,99828.63
2023-03-18T04:56:36.166Z,99832.84
2023-03-18T04:59:03.278Z,99833.94
2023-03-18T05:01:30.306Z,99838.81
2023-03-18T05:03:57.275Z,99830.16
2023-03-18T05:06:28.833Z,99847.13
2023-03-18T05:08:57.163Z,99845.59
2023-03-18T05:11:24.435Z,99853.50
2023-03-18T05:13:52.129Z,99851.53
2023-03-18T05:16:19.352Z,99855.09
2023-03-18T05:18:46.878Z,99858.31
2023-03-18T05:21:13.781Z,99857.00
2023-03-18T05:23:41.071Z,99865.94
2023-03-18T05:26:08.044Z,99865.88
2023-03-18T05:28:34.945Z,99884.28
2023-03-18T05:31:02.465Z,99895.41
2023-03-18T05:33:29.921Z,99901.66
2023-03-18T05:35:56.908Z,99905.50
2023-03-18T05:38:24.153Z,99902.38
2023-03-18T05:40:51.436Z,99910.03
2023-03-18T05:43:18.613Z,99915.31
2023-03-18T05:45:45.602Z,99920.63
2023-03-18T05:48:12.728Z,99915.31
2023-03-18T05:50:43.743Z,99920.22
2023-03-18T05:53:12.047Z,99913.91
2023-03-18T05:55:40.441Z,99910.59
2023-03-18T05:58:07.591Z,99908.13
2023-03-18T06:00:35.421Z,99913.56
2023-03-18T06:03:02.867Z,99906.25
2023-03-18T06:05:31.310Z,99904.47
2023-03-18T06:07:59.510Z,99907.09
2023-03-18T06:10:26.761Z,99900.41
2023-03-18T06:12:55.794Z,99903.66
2023-03-18T06:15:23.609Z,99904.41
2023-03-18T06:17:51.019Z,99906.97
2023-03-18T06:20:19.561Z,99910.44
2023-03-18T06:22:50.320Z,99918.13
2023-03-18T06:25:20.267Z,99912.63
2023-03-18T06:27:48.064Z,99917.19
2023-03-18T06:30:16.944Z,99893.75
2023-03-18T06:32:44.305Z,99894.56
2023-03-18T06:35:12.792Z,99891.44
2023-03-18T06:37:40.459Z,99897.28
2023-03-18T06:40:10.566Z,99885.44
2023-03-18T06:42:37.827Z,99896.44
2023-03-18T06:45:05.431Z,99903.97
2023-03-18T06:47:32.798Z,99892.25
2023-03-18T06:50:00.308Z,99885.13
2023-03-18T06:52:28.285Z,99899.81
2023-03-18T06:54:55.642Z,99906.78
2023-03-18T06:57:22.628Z,99912.97
2023-03-18T06:59:49.638Z,99917.66
2023-03-18T07:02:17.702Z,99923.06
2023-03-18T07:04:44.784Z,99922.25
2023-03-18T07:07:12.166Z,99925.72
2023-03-18T07:09:39.098Z,99930.03
2023-03-18T07:12:07.058Z,99919.84
2023-03-18T07:14:33.992Z,99914.69
2023-03-18T07:17:02.197Z,99902.72
2023-03-18T07:19:29.209Z,99900.66
2023-03-18T07:21:57.051Z,99899.50
2023-03-18T07:24:24.020Z,99894.28
2023-03-18T07:26:51.683Z,99896.25
2023-03-18T07:29:19.560Z,99896.41
2023-03-18T07:31:46.904Z,99889.22
2023-03-18T07:34:18.754Z,99897.53
2023-03-18T07:36:45.794Z,99901.25
2023-03-18T07:39:12.857Z,99902.88
2023-03-18T07:41:39.866Z,99899.44
2023-03-18T07:44:07.842Z,99889.44
2023-03-18T07:46:35.209Z,99887.59
2023-03-18T07:49:02.240Z,99890.63
2023-03-18T07:51:29.468Z,99888.09
2023-03-18T07:53:56.605Z,99892.59
2023-03-18T07:56:24.232Z,99890.44
2023-03-18T07:58:51.781Z,99884.59
2023-03-18T08:01:19.536Z,99886.13
2023-03-18T08:03:47.673Z,99878.28
2023-03-18T08:06:15.714Z,99874.56
2023-03-18T08:08:43.762Z,99868.22
2023-03-18T08:11:11.775Z,99877.56
2023-03-18T08:13:39.620Z,99873.03
2023-03-18T08:16:07.459Z,99874.88
2023-03-18T08:18:35.363Z,99877.31
2023-03-18T08:21:02.325Z,99875.25
2023-03-18T08:23:29.353Z,99875.28
2023-03-18T08:25:56.643Z,99866.97
2023-03-18T08:28:23.783Z,99863.84
2023-03-18T08:30:55.994Z,99857.78
2023-03-18T08:33:27.621Z,99856.53
2023-03-18T08:35:56.286Z,99855.28
2023-03-18T08:38:24.881Z,99855.03
2023-03-18T08:40:52.160Z,99849.19
2023-03-18T08:43:22.364Z,99839.78
2023-03-18T08:45:55.941Z,99837.91
2023-03-18T08:48:25.704Z,99842.50
2023-03-18T08:50:52.748Z,99836.19
2023-03-18T08:53:19.975Z,99833.28
2023-03-18T08:55:47.700Z,99834.34
2023-03-18T08:58:14.735Z,99837.53
2023-03-18T09:00:42.952Z,99830.28
2023-03-18T09:03:11.174Z,99826.78
2023-03-18T09:05:38.621Z,99830.56
2023-03-18T09:08:06.578Z,99816.47
2023-03-18T09:10:34.213Z,99820.72
2023-03-18T09:13:01.163Z,99811.09
2023-03-18T09:15:28.198Z,99809.16
2023-03-18T09:18:10.317Z,99806.44
2023-03-18T09:20:39.196Z,99801.91
2023-03-18T09:23:07.361Z,99809.56
2023-03-18T09:25:35.268Z,99796.81
2023-03-18T09:28:02.509Z,99777.91
2023-03-18T09:30:30.164Z,99774.66
2023-03-18T09:32:57.247Z,99776.75
2023-03-18T09:35:24.574Z,99749.09
2023-03-18T09:37:52.127Z,99748.75
2023-03-18T09:40:38.026Z,99754.22
2023-03-18T09:43:26.287Z,99746.19
2023-03-18T09:46:32.112Z,99746.41
2023-03-18T09:49:39.710Z,99747.69
2023-03-18T09:52:23.255Z,99749.13
2023-03-18T09:55:23.168Z,99744.06
2023-03-18T09:57:55.174Z,99732.13
2023-03-18T10:00:36.976Z,99732.13
2023-03-18T10:03:10.136Z,99725.03
2023-03-18T10:05:53.096Z,99719.56
2023-03-18T10:08:38.703Z,99721.28
2023-03-18T10:11:16.897Z,99714.00
2023-03-18T10:14:22.414Z,99721.56
2023-03-18T10:17:13.600Z,99728.63
2023-03-18T10:19:52.485Z,99743.66
2023-03-18T10:22:55.048Z,99754.38
2023-03-18T10:25:36.056Z,99764.09
2023-03-18T10:28:35.731Z,99757.59
2023-03-18T10:31:47.250Z,99752.09
2023-03-18T10:34:24.900Z,99760.59
2023-03-18T10:36:55.622Z,99762.63
2023-03-18T10:39:26.310Z,99775.25
2023-03-18T10:41:55.849Z,99751.94
2023-03-18T10:44:43.177Z,99750.25
2023-03-18T10:47:21.039Z,99741.44
2023-03-18T10:50:25.479Z,99764.13
2023-03-18T10:53:05.584Z,99763.19
2023-03-18T10:55:51.204Z,99741.91
2023-03-18T10:58:19.991Z,99735.88
2023-03-18T11:00:47.705Z,99739.16
2023-03-18T11:03:30.994Z,99744.75
2023-03-18T11:06:04.243Z,99735.50
2023-03-18T11:08:41.108Z,99721.97
2023-03-18T11:11:32.835Z,99723.38
2023-03-18T11:14:03.087Z,99718.81
2023-03-18T11:16:56.527Z,99723.59
2023-03-18T11:19:48.845Z,99719.59
2023-03-18T11:22:19.645Z,99731.44
2023-03-18T11:25:06.098Z,99722.19
2023-03-18T11:27:43.855Z,99710.56
2023-03-18T11:30:33.079Z,99702.03
2023-03-18T11:33:35.121Z,99708.56
2023-03-18T11:36:09.709Z,99710.19
2023-03-18T11:38:37.852Z,99703.44
2023-03-18T11:41:26.553Z,99716.19
2023-03-18T11:44:00.387Z,99723.50
2023-03-18T11:46:40.904Z,99726.19
2023-03-18T11:49:14.492Z,99718.34
2023-03-18T11:52:27.385Z,99721.84
2023-03-18T11:55:18.489Z,99717.72
2023-03-18T11:58:00.286Z,99704.22
2023-03-18T12:00:42.259Z,99703.56
2023-03-18T12:03:35.503Z,99702.19
2023-03-18T12:06:16.916Z,99697.25
2023-03-18T12:09:12.524Z,99700.47
2023-03-18T12:12:10.078Z,99694.22
2023-03-18T12:15:03.252Z,99697.59
2023-03-18T12:17:43.556Z,99684.00
2023-03-18T12:20:40.437Z,99696.19
2023-03-18T12:23:20.203Z,99686.25
2023-03-18T12:26:01.205Z,99692.63
2023-03-18T12:29:14.366Z,99699.81
2023-03-18T12:31:59.659Z,99696.84
2023-03-18T12:34:48.854Z,99698.22
2023-03-18T12:38:10.356Z,99685.75
2023-03-18T12:41:18.817Z,99678.69
2023-03-18T12:44:21.827Z,99665.47
2023-03-18T12:47:11.093Z,99670.09
2023-03-18T12:50:03.894Z,99675.03
2023-03-18T12:53:05.393Z,99665.00
2023-03-18T12:55:38.175Z,99662.38
2023-03-18T12:58:10.903Z,99665.31
2023-03-18T13:01:19.870Z,99668.66
2023-03-18T13:04:06.338Z,99676.00
2023-03-18T13:07:50.666Z,99670.16
2023-03-18T13:10:25.097Z,99670.44
2023-03-18T13:12:56.388Z,99661.09
2023-03-18T13:15:38.417Z,99657.84
2023-03-18T13:18:34.259Z,99645.06
2023-03-18T13:21:01.994Z,99644.19
2023-03-18T13:23:50.493Z,99651.78
2023-03-18T13:26:48.819Z,99653.41
2023-03-18T13:30:08.973Z,99648.91
2023-03-18T13:32:58.896Z,99641.91
2023-03-18T13:35:55.872Z,99642.44
2023-03-18T13:39:08.467Z,99643.06
2023-03-18T13:41:53.418Z,99645.22
2023-03-18T13:44:37.196Z,99648.34
2023-03-18T13:47:09.176Z,99629.03
2023-03-18T13:49:39.398Z,99638.69
2023-03-18T13:52:26.310Z,99635.66
2023-03-18T13:54:53.548Z,99638.81
2023-03-18T13:57:29.716Z,99636.94
2023-03-18T14:00:27.568Z,99626.63
2023-03-18T14:03:17.387Z,99630.69
2023-03-18T14:05:47.067Z,99637.44
2023-03-18T14:08:38.970Z,99630.66
2023-03-18T14:11:20.118Z,99625.09
2023-03-18T14:14:06.073Z,99614.75
2023-03-18T14:16:37.709Z,99621.22
2023-03-18T14:19:32.694Z,99614.72
2023-03-18T14:22:19.830Z,99604.78
2023-03-18T14:25:24.360Z,99608.63
2023-03-18T14:28:19.428Z,99607.59
2023-03-18T14:30:58.136Z,99602.75
2023-03-18T14:33:25.025Z,99602.53
2023-03-18T14:36:08.064Z,99604.50
2023-03-18T14:38:41.570Z,99610.72
2023-03-18T14:41:29.902Z,99600.63
2023-03-18T14:44:06.460Z,99601.03
2023-03-18T14:46:41.426Z,99583.16
2023-03-18T14:50:04.483Z,99596.22
2023-03-18T14:52:39.849Z,99592.13
2023-03-18T14:55:18.871Z,99598.22
2023-03-18T14:57:46.403Z,99601.06
2023-03-18T15:00:20.470Z,99596.97
2023-03-18T15:03:00.640Z,99599.22
2023-03-18T15:05:35.088Z,99601.38
2023-03-18T15:08:09.015Z,99593.47
2023-03-18T15:10:36.605Z,99595.34
2023-03-18T15:13:24.216Z,99594.91
2023-03-18T15:15:56.387Z,99594.19
2023-03-18T15:18:36.262Z,99597.13
2023-03-18T15:21:13.904Z,99596.09
2023-03-18T15:23:45.923Z,99592.69
2023-03-18T15:26:22.260Z,99592.47
2023-03-18T15:29:00.772Z,99577.78
2023-03-18T15:31:32.998Z,99586.22
2023-03-18T15:34:26.076Z,99592.66
2023-03-18T15:36:56.700Z,99591.97
2023-03-18T15:39:44.046Z,99588.75
2023-03-18T15:42:21.590Z,99591.31
2023-03-18T15:45:00.855Z,99589.72
2023-03-18T15:47:31.632Z,99573.38
2023-03-18T15:50:09.586Z,99584.41
2023-03-18T15:52:42.977Z,99575.38
2023-03-18T15:55:30.578Z,99584.53
2023-03-18T15:57:58.948Z,99580.09
2023-03-18T16:00:26.375Z,99579.63
2023-03-18T16:02:53.728Z,99583.84
2023-03-18T16:05:26.185Z,99581.50
2023-03-18T16:07:54.075Z,99586.00
2023-03-18T16:10:23.740Z,99577.09
2023-03-18T16:12:59.233Z,99590.94
2023-03-18T16:15:27.872Z,99593.00
2023-03-18T16:17:56.257Z,99592.78
2023-03-18T16:20:28.961Z,99585.31
2023-03-18T16:22:56.404Z,99594.03
2023-03-18T16:25:24.674Z,99597.41
2023-03-18T16:27:56.416Z,99597.38
2023-03-18T16:30:33.469Z,99604.56
2023-03-18T16:33:00.658Z,99608.50
2023-03-18T16:35:33.456Z,99617.47
2023-03-18T16:38:01.268Z,99617.09
2023-03-18T16:40:31.362Z,99629.22
2023-03-18T16:42:58.906Z,99625.00
2023-03-18T16:45:32.201Z,99636.97
2023-03-18T16:48:05.183Z,99636.56
2023-03-18T16:50:38.133Z,99643.41
2023-03-18T16:53:26.245Z,99651.13
2023-03-18T16:55:59.741Z,99643.44
2023-03-18T16:58:33.604Z,99651.94
2023-03-18T17:01:01.474Z,99654.78
2023-03-18T17:03:29.400Z,99659.28
2023-03-18T17:05:57.362Z,99661.31
2023-03-18T17:08:24.359Z,99662.47
2023-03-18T17:10:55.878Z,99659.25
2023-03-18T17:13:28.442Z,99664.31
2023-03-18T17:15:55.779Z,99677.09
2023-03-18T17:18:24.601Z,99680.53
2023-03-18T17:20:52.017Z,99682.78
2023-03-18T17:23:30.094Z,99690.44
2023-03-18T17:25:59.653Z,99681.75
2023-03-18T17:28:41.832Z,99680.53
2023-03-18T17:31:12.137Z,99680.34
2023-03-18T17:33:39.445Z,99681.97
2023-03-18T17:36:07.717Z,99678.72
2023-03-18T17:38:35.245Z,99682.38
2023-03-18T17:41:20.071Z,99693.84
2023-03-18T17:43:47.347Z,99705.31
2023-03-18T17:46:14.472Z,99713.00
2023-03-18T17:48:41.484Z,99719.75
2023-03-18T17:51:18.547Z,99728.91
2023-03-18T17:53:49.412Z,99729.50
2023-03-18T17:56:19.290Z,99729.50
2023-03-18T17:58:51.769Z,99732.22
2023-03-18T18:01:28.813Z,99735.09
2023-03-18T18:03:58.572Z,99734.63
2023-03-18T18:06:29.271Z,99734.97
2023-03-18T18:09:00.996Z,99734.53
2023-03-18T18:11:44.126Z,99737.78
2023-03-18T18:14:23.248Z,99740.59
2023-03-18T18:16:52.160Z,99740.25
2023-03-18T18:19:19.729Z,99737.91
2023-03-18T18:21:49.059Z,99735.06
2023-03-18T18:24:29.734Z,99738.81
2023-03-18T18:26:57.198Z,99749.00
2023-03-18T18:29:28.207Z,99745.47
2023-03-18T18:31:55.294Z,99746.81
2023-03-18T18:34:22.232Z,99742.06
2023-03-18T18:36:50.707Z,99747.59
2023-03-18T18:39:18.212Z,99751.59
2023-03-18T18:41:46.589Z,99752.53
2023-03-18T18:44:14.088Z,99758.56
2023-03-18T18:46:41.341Z,99763.25
2023-03-18T18:49:23.685Z,99765.44
2023-03-18T18:51:53.611Z,99771.25
2023-03-18T18:54:26.987Z,99772.44
2023-03-18T18:56:53.907Z,99774.06
2023-03-18T18:59:26.982Z,99774.47
2023-03-18T19:01:55.482Z,99760.25
2023-03-18T19:04:23.845Z,99755.63
2023-03-18T19:06:52.527Z,99756.94
2023-03-18T19:09:23.767Z,99749.41
2023-03-18T19:11:53.818Z,99756.59
2023-03-18T19:14:27.539Z,99756.38
2023-03-18T19:16:58.604Z,99752.78
2023-03-18T19:19:32.174Z,99762.38
2023-03-18T19:21:59.187Z,99763.31
2023-03-18T19:24:36.838Z,99771.66
2023-03-18T19:27:14.491Z,99787.69
2023-03-18T19:29:42.269Z,99792.84
2023-03-18T19:32:21.078Z,99790.00
2023-03-18T19:34:49.522Z,99789.66
2023-03-18T19:37:31.051Z,99790.16
2023-03-18T19:39:59.852Z,99795.88
2023-03-18T19:42:26.843Z,99795.63
2023-03-18T19:44:53.861Z,99802.63
2023-03-18T19:47:24.516Z,99807.56
2023-03-18T19:49:51.908Z,99814.84
2023-03-18T19:52:25.829Z,99817.34
2023-03-18T19:54:54.203Z,99815.78
2023-03-18T19:57:30.473Z,99821.81
2023-03-18T19:59:58.772Z,99825.25
2023-03-18T20:02:32.349Z,99822.53
2023-03-18T20:05:03.790Z,99820.34
2023-03-18T20:07:34.837Z,99822.41
2023-03-18T20:10:01.838Z,99824.25
2023-03-18T20:12:38.572Z,99825.47
2023-03-18T20:15:14.708Z,99823.50
2023-03-18T20:17:45.125Z,99830.19
2023-03-18T20:20:20.052Z,99853.69
2023-03-18T20:23:01.956Z,99860.00
2023-03-18T20:25:36.243Z,99853.06
2023-03-18T20:28:04.661Z,99860.59
2023-03-18T20:30:38.223Z,99863.34
2023-03-18T20:33:06.670Z,99862.22
2023-03-18T20:35:37.505Z,99850.56
2023-03-18T20:38:13.206Z,99851.31
2023-03-18T20:40:42.481Z,99855.03
2023-03-18T20:43:16.052Z,99858.63
2023-03-18T20:45:43.753Z,99854.34
2023-03-18T20:48:11.001Z,99853.09
2023-03-18T20:50:38.163Z,99850.25
2023-03-18T20:53:08.649Z,99861.94
2023-03-18T20:55:36.384Z,99876.06
2023-03-18T20:58:03.977Z,99860.91
2023-03-18T21:00:33.176Z,99873.53
2023-03-18T21:03:03.049Z,99890.28
2023-03-18T21:05:30.000Z,99905.50
2023-03-18T21:07:56.999Z,99918.53
2023-03-18T21:10:26.459Z,99929.66
2023-03-18T21:12:54.350Z,99925.41
2023-03-18T21:15:26.145Z,99926.22
2023-03-18T21:17:54.038Z,99935.34
2023-03-18T21:20:27.036Z,99936.97
2023-03-18T21:22:54.456Z,99934.06
2023-03-18T21:25:25.651Z,99942.06
2023-03-18T21:27:53.590Z,99939.09
2023-03-18T21:30:22.705Z,99932.75
2023-03-18T21:32:50.957Z,99944.16
2023-03-18T21:35:25.044Z,99949.84
2023-03-18T21:37:53.066Z,99950.81
2023-03-18T21:40:23.709Z,99944.44
2023-03-18T21:42:51.948Z,99943.47
2023-03-18T21:45:23.620Z,99951.25
2023-03-18T21:47:52.614Z,99953.25
2023-03-18T21:50:24.318Z,99957.13
2023-03-18T21:52:52.697Z,99953.25
2023-03-18T21:55:21.085Z,99951.88
2023-03-18T21:57:49.309Z,99952.81
2023-03-18T22:00:20.080Z,99951.16
2023-03-18T22:02:47.738Z,99953.59
2023-03-18T22:05:19.936Z,99953.16
2023-03-18T22:07:46.990Z,99951.56
2023-03-18T22:10:20.901Z,99941.25
2023-03-18T22:12:47.918Z,99936.91
2023-03-18T22:15:24.138Z,99933.97
2023-03-18T22:17:51.971Z,99943.75
2023-03-18T22:20:19.004Z,99936.16
2023-03-18T22:22:47.189Z,99934.69
2023-03-18T22:25:36.492Z,99934.69
2023-03-18T22:28:03.773Z,99939.69
2023-03-18T22:30:33.456Z,99939.91
2023-03-18T22:33:02.249Z,99937.28
2023-03-18T22:35:30.334Z,99941.66
2023-03-18T22:37:57.595Z,99945.03
2023-03-18T22:40:28.600Z,99948.44
2023-03-18T22:43:00.797Z,99957.34
2023-03-18T22:45:33.262Z,99952.63
2023-03-18T22:48:04.470Z,99946.25
2023-03-18T22:50:34.468Z,99963.66
2023-03-18T22:53:06.761Z,99960.25
2023-03-18T22:55:39.603Z,99975.66
2023-03-18T22:58:07.113Z,99979.56
2023-03-18T23:00:40.755Z,99978.56
2023-03-18T23:03:35.927Z,99973.75
2023-03-18T23:06:04.067Z,99960.78
2023-03-18T23:08:32.279Z,99964.75
2023-03-18T23:11:01.780Z,99990.72
2023-03-18T23:13:41.541Z,99978.75
2023-03-18T23:16:15.731Z,99977.47
2023-03-18T23:18:42.889Z,99975.88
2023-03-18T23:21:19.814Z,99964.44
2023-03-18T23:23:46.852Z,99966.94
2023-03-18T23:26:14.507Z,99957.56
2023-03-18T23:28:44.783Z,99964.56
2023-03-18T23:31:14.279Z,99957.38
2023-03-18T23:33:41.569Z,99953.78
2023-03-18T23:36:09.016Z,99963.41
2023-03-18T23:38:37.642Z,99977.19
2023-03-18T23:41:05.190Z,99977.13
2023-03-18T23:43:32.121Z,99987.44
2023-03-18T23:45:59.305Z,99993.16
2023-03-18T23:48:26.355Z,100017.22
2023-03-18T23:50:53.746Z,100015.19
2023-03-18T23:53:20.858Z,100013.16
2023-03-18T23:55:49.548Z,99998.94
2023-03-18T23:58:16.757Z,99984.44
